Time;durP1;ratioP1;P1;durP2;ratioP2;P2;SDS_P1;SDS_P2;PMS_P1;PMS_P2;Temp;Humidity;BMP_temperature;BMP_pressure;BME280_temperature;BME280_humidity;BME280_pressure;Samples;Min_cycle;Max_cycle;Signal;HPM_P1;HPM_P2
2021/11/23 00:02:24;;;;;;;47.58;12.30;;;;;;;0.53;80.28;101660.84;1735989;81;25812;-69
2021/11/23 00:04:51;;;;;;;28.15;8.53;;;;;;;0.51;80.26;101637.09;1715318;80;98811;-71
2021/11/23 00:07:18;;;;;;;27.17;7.70;;;;;;;0.47;80.22;101643.62;1699804;82;26046;-71
2021/11/23 00:09:44;;;;;;;18.80;5.47;;;;;;;0.44;80.21;101644.47;1704258;81;98796;-70
2021/11/23 00:12:10;;;;;;;22.40;7.00;;;;;;;0.42;80.18;101648.83;1703187;82;27585;-71
2021/11/23 00:14:37;;;;;;;16.48;5.62;;;;;;;0.37;80.16;101645.24;1705676;82;25795;-71
2021/11/23 00:17:03;;;;;;;16.12;6.85;;;;;;;0.36;80.16;101647.86;1727531;81;98552;-71
2021/11/23 00:19:29;;;;;;;18.00;6.30;;;;;;;0.32;80.12;101646.50;1728773;80;26003;-71
2021/11/23 00:21:55;;;;;;;15.05;6.60;;;;;;;0.28;80.12;101642.47;1727757;81;98716;-71
2021/11/23 00:24:21;;;;;;;23.60;8.10;;;;;;;0.24;80.07;101645.50;1731678;80;28174;-71
2021/11/23 00:26:47;;;;;;;18.65;7.62;;;;;;;0.20;80.06;101650.27;1728787;80;33506;-70
2021/11/23 00:29:14;;;;;;;25.32;7.80;;;;;;;0.16;80.05;101649.77;1730886;81;98680;-70
2021/11/23 00:31:40;;;;;;;25.60;7.97;;;;;;;0.12;80.09;101645.31;1728176;80;26126;-71
2021/11/23 00:34:06;;;;;;;22.50;8.05;;;;;;;0.10;80.09;101650.99;1722556;80;98726;-70
2021/11/23 00:36:32;;;;;;;25.32;8.48;;;;;;;0.08;80.08;101650.52;1725471;80;27471;-70
2021/11/23 00:38:58;;;;;;;30.48;8.50;;;;;;;0.04;80.06;101652.65;1731675;81;25976;-70
2021/11/23 00:41:24;;;;;;;49.93;12.23;;;;;;;0.01;80.10;101652.17;1729663;80;98537;-69
2021/11/23 00:43:50;;;;;;;41.50;11.10;;;;;;;0.01;80.11;101648.22;1710785;82;26570;-71
2021/11/23 00:46:17;;;;;;;47.62;11.30;;;;;;;0.01;80.09;101656.13;1734612;80;98786;-69
2021/11/23 00:48:43;;;;;;;50.52;13.80;;;;;;;0.00;80.12;101652.60;1741243;80;29512;-71
2021/11/23 00:51:10;;;;;;;43.15;10.53;;;;;;;-0.02;80.06;101650.84;1727104;79;25927;-71
2021/11/23 00:53:37;;;;;;;56.60;13.00;;;;;;;-0.04;80.03;101650.81;1730060;80;98783;-71
2021/11/23 00:56:05;;;;;;;28.15;8.88;;;;;;;-0.05;80.06;101643.77;1723386;81;26299;-71
2021/11/23 00:58:33;;;;;;;45.90;12.50;;;;;;;-0.06;80.00;101638.48;1723801;81;98639;-71
2021/11/23 01:00:59;;;;;;;26.97;8.00;;;;;;;-0.07;80.00;101644.17;1722872;80;27463;-69
2021/11/23 01:03:27;;;;;;;29.35;9.15;;;;;;;-0.13;79.98;101638.81;1723669;81;26298;-70
2021/11/23 01:05:55;;;;;;;45.90;9.90;;;;;;;-0.08;79.93;101644.16;1720469;81;98517;-69
2021/11/23 01:08:21;;;;;;;30.23;7.95;;;;;;;-0.12;79.90;101644.53;1720675;80;25963;-69
2021/11/23 01:10:47;;;;;;;15.83;5.30;;;;;;;-0.12;79.89;101633.11;1719706;80;98741;-69
2021/11/23 01:13:13;;;;;;;15.98;5.20;;;;;;;-0.13;79.85;101636.61;1724112;81;27474;-70
2021/11/23 01:15:39;;;;;;;22.22;6.20;;;;;;;-0.14;79.82;101644.05;1723178;80;98770;-70
2021/11/23 01:18:06;;;;;;;18.85;6.20;;;;;;;-0.14;79.79;101635.72;1740117;80;25996;-69
2021/11/23 01:20:32;;;;;;;17.73;5.58;;;;;;;-0.15;79.77;101642.28;1742194;80;26043;-69
2021/11/23 01:22:59;;;;;;;26.87;8.20;;;;;;;-0.17;79.74;101634.78;1732652;80;98723;-69
2021/11/23 01:25:26;;;;;;;23.98;5.78;;;;;;;-0.21;79.70;101640.43;1738985;80;27968;-69
2021/11/23 01:27:52;;;;;;;18.80;6.20;;;;;;;-0.22;79.67;101641.30;1738563;80;98858;-71
2021/11/23 01:30:18;;;;;;;28.15;7.83;;;;;;;-0.23;79.65;101647.85;1738858;80;31699;-69
2021/11/23 01:32:46;;;;;;;20.62;6.47;;;;;;;-0.25;79.64;101642.99;1737085;80;26043;-70
2021/11/23 01:35:12;;;;;;;14.30;5.28;;;;;;;-0.26;79.62;101643.85;1739723;79;98660;-70
2021/11/23 01:37:42;;;;;;;18.85;6.08;;;;;;;-0.29;79.56;101630.63;1733940;80;27384;-69
2021/11/23 01:40:11;;;;;;;14.63;4.75;;;;;;;-0.29;79.56;101633.27;1740267;80;99013;-70
2021/11/23 01:42:38;;;;;;;13.03;4.45;;;;;;;-0.31;79.55;101627.97;1739500;80;26386;-70
2021/11/23 01:45:06;;;;;;;11.57;4.35;;;;;;;-0.34;79.53;101618.27;1734862;80;26102;-71
2021/11/23 01:47:32;;;;;;;13.20;5.25;;;;;;;-0.33;79.52;101621.79;1743232;80;98645;-69
2021/11/23 01:49:58;;;;;;;13.08;4.45;;;;;;;-0.34;79.51;101618.27;1696203;82;27479;-71
2021/11/23 01:52:25;;;;;;;10.23;3.98;;;;;;;-0.34;79.47;101627.48;1711003;82;98822;-71
2021/11/23 01:54:51;;;;;;;11.95;3.83;;;;;;;-0.42;79.43;101604.09;1726999;80;26487;-71
2021/11/23 01:57:19;;;;;;;12.88;4.00;;;;;;;-0.37;79.43;101619.97;1732732;80;26878;-71
2021/11/23 01:59:47;;;;;;;10.38;4.17;;;;;;;-0.38;79.45;101620.39;1733861;80;98653;-71
2021/11/23 02:02:14;;;;;;;10.18;3.87;;;;;;;-0.37;79.43;101619.97;1743648;80;27425;-70
2021/11/23 02:04:40;;;;;;;12.78;4.08;;;;;;;-0.37;79.42;101616.90;1735626;80;98742;-69
2021/11/23 02:07:07;;;;;;;9.73;4.37;;;;;;;-0.38;79.40;101615.56;1739514;80;25858;-70
2021/11/23 02:09:33;;;;;;;17.52;5.87;;;;;;;-0.38;79.41;101624.34;1738556;80;98777;-72
2021/11/23 02:12:01;;;;;;;8.88;3.70;;;;;;;-0.35;79.46;101610.34;1744847;80;25706;-70
2021/11/23 02:14:31;;;;;;;5.75;3.17;;;;;;;-0.31;79.45;101607.33;1742296;80;28095;-68
2021/11/23 02:16:57;;;;;;;8.48;4.15;;;;;;;-0.28;79.42;101604.74;1737990;80;98572;-69
2021/11/23 02:19:23;;;;;;;8.73;3.30;;;;;;;-0.26;79.41;101613.56;1707169;82;25873;-69
2021/11/23 02:21:49;;;;;;;8.98;4.05;;;;;;;-0.24;79.42;101603.93;1710311;82;98661;-71
2021/11/23 02:24:15;;;;;;;9.48;3.08;;;;;;;-0.22;79.43;101607.47;1741276;80;25740;-71
2021/11/23 02:26:42;;;;;;;10.80;3.77;;;;;;;-0.17;79.44;101605.80;1739443;80;27367;-70
2021/11/23 02:29:08;;;;;;;9.25;3.42;;;;;;;-0.13;79.44;101606.30;1735762;80;99219;-70
2021/11/23 02:31:34;;;;;;;7.67;3.58;;;;;;;-0.11;79.44;101599.30;1738175;80;26564;-70
2021/11/23 02:34:01;;;;;;;10.45;3.62;;;;;;;-0.06;79.44;101596.31;1736520;80;98782;-70
2021/11/23 02:36:27;;;;;;;10.48;3.75;;;;;;;-0.03;79.46;101591.09;1737283;80;25861;-70
2021/11/23 02:38:53;;;;;;;8.23;3.20;;;;;;;0.00;79.47;101589.34;1738806;80;27376;-71
2021/11/23 02:41:20;;;;;;;14.73;4.17;;;;;;;0.04;79.46;101582.37;1728171;80;98504;-71
2021/11/23 02:43:48;;;;;;;8.53;3.52;;;;;;;0.08;79.47;101580.66;1675630;83;25693;-70
2021/11/23 02:46:15;;;;;;;10.43;3.62;;;;;;;0.09;79.48;101581.12;1684551;83;98557;-69
2021/11/23 02:48:42;;;;;;;8.78;3.83;;;;;;;0.11;79.49;101578.07;1727613;81;25736;-69
2021/11/23 02:51:15;;;;;;;11.90;3.35;;;;;;;0.12;79.47;101574.58;1731780;80;28155;-70
2021/11/23 02:53:36;;;;;;;8.10;2.92;;;;;;;0.12;79.46;101575.46;1728374;81;98614;-70
2021/11/23 02:56:04;;;;;;;8.08;3.08;;;;;;;0.10;79.46;101565.76;1725715;81;26412;-69
2021/11/23 02:58:32;;;;;;;11.00;4.10;;;;;;;0.09;79.49;101564.88;1724074;80;98392;-70
2021/11/23 03:01:05;;;;;;;9.63;3.22;;;;;;;0.11;79.52;101573.69;1722439;81;25720;-69
2021/11/23 03:03:31;;;;;;;9.78;3.70;;;;;;;0.09;79.54;101564.88;1732540;80;98603;-69
2021/11/23 03:05:57;;;;;;;9.30;2.87;;;;;;;0.08;79.56;101560.47;1725119;80;25713;-69
2021/11/23 03:08:24;;;;;;;8.65;3.83;;;;;;;0.10;79.60;101565.33;1729387;81;25715;-69
2021/11/23 03:10:52;;;;;;;9.58;3.37;;;;;;;0.12;79.61;101560.08;1712963;81;98134;-72
2021/11/23 03:13:18;;;;;;;6.87;3.15;;;;;;;0.14;79.64;101557.03;1723876;80;26757;-68
2021/11/23 03:15:45;;;;;;;8.45;3.58;;;;;;;0.16;79.69;101556.62;1720577;80;98605;-69
2021/11/23 03:18:11;;;;;;;6.85;2.87;;;;;;;0.15;79.63;101554.41;1731481;81;27177;-69
2021/11/23 03:20:39;;;;;;;7.05;3.22;;;;;;;0.15;79.64;101566.70;1726538;80;25774;-69
2021/11/23 03:23:07;;;;;;;9.13;3.70;;;;;;;0.12;79.66;101563.59;1727918;80;98265;-69
2021/11/23 03:25:33;;;;;;;8.75;3.70;;;;;;;0.12;79.67;101556.13;1725996;81;25736;-69
2021/11/23 03:27:59;;;;;;;7.33;2.92;;;;;;;0.12;79.75;101563.59;1725906;80;99122;-69
2021/11/23 03:30:30;;;;;;;7.40;3.20;;;;;;;0.12;79.83;101554.38;1726538;80;25806;-69
2021/11/23 03:32:59;;;;;;;6.35;4.40;;;;;;;0.14;79.85;101538.14;1721419;81;32566;-69
2021/11/23 03:35:28;;;;;;;11.53;3.27;;;;;;;0.16;79.84;101534.21;1723103;80;99082;-69
2021/11/23 03:37:55;;;;;;;9.78;3.50;;;;;;;0.17;79.87;101531.59;1722622;80;25895;-69
2021/11/23 03:40:26;;;;;;;6.50;2.67;;;;;;;0.18;80.21;101529.41;1729547;81;98431;-69
2021/11/23 03:42:54;;;;;;;7.40;2.77;;;;;;;0.18;79.97;101524.14;1721586;81;25968;-69
2021/11/23 03:45:21;;;;;;;4.35;2.50;;;;;;;0.16;79.95;101524.98;1733534;81;25772;-69
2021/11/23 03:47:48;;;;;;;7.95;2.70;;;;;;;0.17;79.97;101514.89;1733453;80;98252;-68
2021/11/23 03:50:17;;;;;;;7.42;3.30;;;;;;;0.18;79.99;101508.75;1735783;80;25870;-68
2021/11/23 03:52:44;;;;;;;7.30;3.65;;;;;;;0.16;80.00;101503.46;1732866;81;98402;-71
2021/11/23 03:55:16;;;;;;;7.65;3.52;;;;;;;0.15;80.47;101501.69;1738193;80;25826;-71
2021/11/23 03:57:46;;;;;;;7.62;2.80;;;;;;;0.15;80.20;101496.42;1712346;82;98583;-71
2021/11/23 04:00:14;;;;;;;9.53;2.90;;;;;;;0.12;80.13;101487.16;1713633;82;26008;-71
2021/11/23 04:02:42;;;;;;;6.75;3.47;;;;;;;0.11;80.12;101502.52;1707642;82;25787;-68
2021/11/23 04:05:10;;;;;;;10.93;3.02;;;;;;;0.10;80.13;101499.86;1734501;79;98341;-69
2021/11/23 04:07:40;;;;;;;13.38;3.72;;;;;;;0.08;80.17;101503.80;1706407;82;26029;-69
2021/11/23 04:10:06;;;;;;;10.93;3.87;;;;;;;0.05;80.15;101490.58;1715992;81;98657;-69
2021/11/23 04:12:32;;;;;;;6.15;2.58;;;;;;;0.06;80.21;101499.37;1725241;81;26080;-69
2021/11/23 04:14:58;;;;;;;7.25;3.45;;;;;;;0.06;80.23;101493.66;1721757;81;25737;-69
2021/11/23 04:17:24;;;;;;;10.95;4.20;;;;;;;0.05;80.26;101494.96;1718050;81;98351;-69
2021/11/23 04:19:50;;;;;;;10.30;3.37;;;;;;;0.04;80.26;101485.28;1720318;81;26174;-69
2021/11/23 04:22:16;;;;;;;8.95;3.72;;;;;;;0.02;80.38;101485.70;1733255;81;99169;-71
2021/11/23 04:24:42;;;;;;;16.73;5.25;;;;;;;0.04;80.34;101482.66;1708528;81;26064;-69
2021/11/23 04:27:08;;;;;;;14.47;4.95;;;;;;;-0.01;80.36;101476.92;1732302;81;25722;-69
2021/11/23 04:29:34;;;;;;;18.57;5.70;;;;;;;0.00;80.45;101487.87;1712416;81;98730;-70
2021/11/23 04:32:00;;;;;;;8.93;4.35;;;;;;;-0.01;80.47;101478.67;1710432;82;26354;-69
2021/11/23 04:34:26;;;;;;;10.88;3.98;;;;;;;-0.01;80.50;101474.28;1692889;83;98491;-69
2021/11/23 04:36:52;;;;;;;9.68;4.83;;;;;;;-0.03;80.48;101474.70;1705095;81;26119;-69
2021/11/23 04:39:19;;;;;;;12.03;4.70;;;;;;;-0.03;80.53;101480.41;1712182;82;26255;-71
2021/11/23 04:41:45;;;;;;;13.25;4.50;;;;;;;-0.03;80.61;101476.45;1726775;81;98681;-71
2021/11/23 04:44:11;;;;;;;12.88;5.30;;;;;;;-0.02;80.64;101471.63;1724538;81;33595;-71
2021/11/23 04:46:37;;;;;;;12.03;4.22;;;;;;;0.00;80.69;101473.86;1717363;80;98860;-70
2021/11/23 04:49:04;;;;;;;16.42;5.30;;;;;;;0.04;80.73;101472.11;1727083;81;26063;-70
2021/11/23 04:51:31;;;;;;;19.40;4.87;;;;;;;0.06;80.74;101476.53;1725661;81;98621;-70
2021/11/23 04:53:57;;;;;;;37.15;8.63;;;;;;;0.08;80.79;101474.80;1676646;83;28151;-70
2021/11/23 04:56:23;;;;;;;31.95;7.17;;;;;;;0.07;80.78;101480.94;1729401;80;33982;-67
2021/11/23 04:58:49;;;;;;;21.40;5.80;;;;;;;0.06;80.83;101476.53;1720989;81;98514;-67
2021/11/23 05:01:15;;;;;;;20.25;5.72;;;;;;;0.07;80.86;101475.67;1682742;83;26401;-67
2021/11/23 05:03:41;;;;;;;20.77;6.62;;;;;;;0.06;81.06;101482.23;1676399;83;98755;-67
2021/11/23 05:06:07;;;;;;;17.42;5.33;;;;;;;0.05;81.28;101473.45;1681736;83;29758;-68
2021/11/23 05:08:33;;;;;;;26.65;7.30;;;;;;;0.05;81.08;101477.40;1677744;83;26079;-70
2021/11/23 05:10:59;;;;;;;16.93;6.55;;;;;;;0.08;81.11;101468.64;1730062;80;98626;-70
2021/11/23 05:13:25;;;;;;;27.67;8.60;;;;;;;0.10;81.17;101478.77;1719133;81;26058;-70
2021/11/23 05:15:51;;;;;;;25.27;6.92;;;;;;;0.13;81.21;101474.86;1717281;80;98663;-70
2021/11/23 05:18:17;;;;;;;15.03;5.70;;;;;;;0.15;81.25;101470.05;1726523;80;28029;-70
2021/11/23 05:20:43;;;;;;;13.50;4.90;;;;;;;0.20;81.27;101467.05;1725870;81;33975;-67
2021/11/23 05:23:09;;;;;;;20.27;6.47;;;;;;;0.26;81.37;101472.82;1727757;80;98572;-68
2021/11/23 05:25:35;;;;;;;73.67;15.28;;;;;;;0.29;81.37;101470.22;1725570;80;28188;-67
2021/11/23 05:28:01;;;;;;;55.10;11.40;;;;;;;0.30;81.39;101474.20;1728219;80;98962;-67
2021/11/23 05:30:27;;;;;;;25.80;7.50;;;;;;;0.35;81.45;101476.00;1676974;82;27431;-68
2021/11/23 05:32:53;;;;;;;17.07;5.53;;;;;;;0.38;81.47;101479.98;1665307;84;26575;-67
2021/11/23 05:35:20;;;;;;;21.60;5.22;;;;;;;0.41;81.58;101460.25;1679411;83;98691;-69
2021/11/23 05:37:46;;;;;;;16.87;5.65;;;;;;;0.42;81.63;101456.74;1674898;83;26083;-70
2021/11/23 05:40:13;;;;;;;19.37;6.25;;;;;;;0.44;81.64;101462.92;1678984;82;98689;-68
2021/11/23 05:42:39;;;;;;;13.45;4.85;;;;;;;0.44;81.66;101453.69;1685009;81;27503;-67
2021/11/23 05:45:08;;;;;;;15.58;5.60;;;;;;;0.44;81.71;101449.73;1724670;81;26355;-70
2021/11/23 05:47:37;;;;;;;24.15;7.33;;;;;;;0.41;81.70;101459.81;1720190;81;98767;-67
2021/11/23 05:50:05;;;;;;;13.53;5.50;;;;;;;0.40;81.75;101446.61;1725658;81;26046;-70
2021/11/23 05:52:31;;;;;;;14.43;4.95;;;;;;;0.40;81.83;101445.30;1725575;81;98499;-68
2021/11/23 05:54:58;;;;;;;19.42;6.33;;;;;;;0.40;81.77;101445.30;1719169;81;27453;-70
2021/11/23 05:57:24;;;;;;;17.73;6.47;;;;;;;0.40;81.93;101447.93;1709303;81;25744;-68
2021/11/23 05:59:50;;;;;;;13.78;5.75;;;;;;;0.39;81.93;101448.80;1715863;81;98334;-68
2021/11/23 06:02:16;;;;;;;10.78;5.45;;;;;;;0.37;81.93;101447.89;1721702;81;26137;-67
2021/11/23 06:04:42;;;;;;;23.15;6.30;;;;;;;0.37;82.00;101458.45;1701728;82;98502;-67
2021/11/23 06:07:08;;;;;;;26.17;6.60;;;;;;;0.35;82.10;101461.50;1730790;81;29595;-67
2021/11/23 06:09:34;;;;;;;26.77;7.33;;;;;;;0.34;82.23;101464.57;1728661;81;97817;-67
2021/11/23 06:12:00;;;;;;;18.98;6.35;;;;;;;0.33;82.36;101468.08;1695617;82;25782;-67
2021/11/23 06:14:27;;;;;;;17.10;6.62;;;;;;;0.35;82.68;101476.89;1732706;81;26027;-68
2021/11/23 06:16:53;;;;;;;17.60;6.75;;;;;;;0.39;82.58;101468.58;1716408;81;98565;-68
2021/11/23 06:19:19;;;;;;;17.77;7.12;;;;;;;0.38;82.62;101482.20;1715828;81;27426;-67
2021/11/23 06:21:46;;;;;;;22.48;8.30;;;;;;;0.41;82.65;101483.55;1717831;81;98664;-67
2021/11/23 06:24:12;;;;;;;19.62;6.87;;;;;;;0.41;82.71;101483.98;1721412;81;25694;-69
2021/11/23 06:26:39;;;;;;;30.17;7.42;;;;;;;0.38;82.76;101473.40;1723606;81;26445;-69
2021/11/23 06:29:05;;;;;;;17.50;6.90;;;;;;;0.37;82.94;101482.17;1724801;81;98457;-71
2021/11/23 06:31:32;;;;;;;16.48;7.90;;;;;;;0.33;83.01;101462.36;1722624;81;27494;-70
2021/11/23 06:33:59;;;;;;;17.37;7.60;;;;;;;0.32;83.07;101473.78;1722205;81;98792;-69
2021/11/23 06:36:25;;;;;;;19.40;7.60;;;;;;;0.32;83.15;101471.14;1723629;81;26388;-70
2021/11/23 06:38:51;;;;;;;16.12;7.85;;;;;;;0.27;83.16;101467.57;1718556;81;26024;-69
2021/11/23 06:41:19;;;;;;;18.50;8.20;;;;;;;0.32;83.37;101463.67;1720739;81;98645;-70
2021/11/23 06:43:45;;;;;;;21.90;8.58;;;;;;;0.32;83.54;101465.87;1712874;81;27548;-70
2021/11/23 06:46:11;;;;;;;16.50;8.33;;;;;;;0.31;83.53;101457.94;1720445;81;98875;-70
2021/11/23 06:48:38;;;;;;;24.52;8.80;;;;;;;0.32;83.79;101468.50;1689582;81;25834;-70
2021/11/23 06:51:04;;;;;;;21.82;10.23;;;;;;;0.34;83.77;101471.16;1727961;81;25998;-70
2021/11/23 06:53:31;;;;;;;18.82;8.23;;;;;;;0.36;83.84;101477.77;1716727;80;98683;-70
2021/11/23 06:55:57;;;;;;;22.25;8.85;;;;;;;0.42;84.10;101481.80;1700862;82;28033;-71
2021/11/23 06:58:23;;;;;;;27.02;10.25;;;;;;;0.45;84.21;101480.52;1696844;82;98496;-70
2021/11/23 07:00:49;;;;;;;20.97;9.73;;;;;;;0.49;84.52;101489.80;1695706;82;26067;-70
2021/11/23 07:03:15;;;;;;;23.73;10.03;;;;;;;0.53;84.47;101467.86;1722342;81;26543;-71
2021/11/23 07:05:41;;;;;;;22.75;9.85;;;;;;;0.58;84.50;101472.75;1723638;81;98696;-71
2021/11/23 07:08:07;;;;;;;20.35;9.83;;;;;;;0.64;84.59;101491.28;1693970;83;28001;-71
2021/11/23 07:10:33;;;;;;;32.13;11.73;;;;;;;0.63;84.73;101482.03;1701460;81;98490;-71
2021/11/23 07:13:00;;;;;;;25.02;10.65;;;;;;;0.71;84.88;101497.51;1708095;82;25758;-71
2021/11/23 07:15:28;;;;;;;21.87;8.95;;;;;;;0.73;85.00;101502.36;1730410;81;26032;-71
2021/11/23 07:17:54;;;;;;;25.55;11.38;;;;;;;0.80;85.24;101496.72;1729296;80;98435;-72
2021/11/23 07:20:23;;;;;;;25.52;11.53;;;;;;;0.85;85.58;101485.34;1716133;81;27476;-71
2021/11/23 07:22:48;;;;;;;26.33;11.93;;;;;;;0.92;85.70;101475.72;1712792;80;98821;-71
2021/11/23 07:25:14;;;;;;;24.82;12.13;;;;;;;0.98;85.75;101474.02;1721533;81;25801;-71
2021/11/23 07:27:40;;;;;;;25.85;12.03;;;;;;;1.05;85.66;101484.20;1722417;81;99164;-71
2021/11/23 07:30:08;;;;;;;26.82;12.98;;;;;;;1.11;85.75;101508.45;1730191;81;25663;-69
2021/11/23 07:32:35;;;;;;;28.52;13.08;;;;;;;1.13;85.89;101505.39;1728483;81;27739;-68
2021/11/23 07:35:03;;;;;;;25.20;12.15;;;;;;;1.15;85.92;101499.69;1718447;80;98844;-69
2021/11/23 07:37:36;;;;;;;32.85;13.28;;;;;;;1.19;86.19;101500.16;1722710;81;25775;-67
2021/11/23 07:39:58;;;;;;;27.50;12.93;;;;;;;1.21;86.23;101502.38;1722508;80;99211;-69
2021/11/23 07:42:25;;;;;;;33.92;14.07;;;;;;;1.23;86.17;101498.00;1718157;80;26400;-73
2021/11/23 07:44:51;;;;;;;28.92;13.38;;;;;;;1.27;86.37;101508.59;1697676;82;30771;-73
2021/11/23 07:47:17;;;;;;;28.60;12.45;;;;;;;1.30;86.46;101511.70;1723038;81;98637;-73
2021/11/23 07:49:43;;;;;;;28.35;13.60;;;;;;;1.35;86.54;101510.41;1732065;80;30936;-73
2021/11/23 07:52:09;;;;;;;21.20;10.00;;;;;;;1.37;86.49;101507.35;1710786;82;99105;-73
2021/11/23 07:54:35;;;;;;;26.37;11.33;;;;;;;1.39;86.56;101518.81;1725963;81;25794;-73
2021/11/23 07:57:01;;;;;;;26.57;12.50;;;;;;;1.41;86.58;101506.06;1723857;81;27392;-74
2021/11/23 07:59:27;;;;;;;24.85;11.85;;;;;;;1.45;86.69;101514.90;1722881;80;99058;-75
2021/11/23 08:01:54;;;;;;;31.30;13.55;;;;;;;1.47;86.94;101512.72;1721274;81;30390;-76
2021/11/23 08:04:20;;;;;;;26.27;13.30;;;;;;;1.48;86.89;101511.84;1721562;81;98649;-74
2021/11/23 08:06:46;;;;;;;26.65;12.37;;;;;;;1.54;87.00;101512.33;1723594;81;26013;-75
2021/11/23 08:09:12;;;;;;;28.40;12.30;;;;;;;1.57;87.06;101500.45;1723487;81;28152;-73
2021/11/23 08:11:38;;;;;;;29.77;14.28;;;;;;;1.61;87.12;101503.57;1724718;81;98674;-73
2021/11/23 08:14:04;;;;;;;27.10;13.85;;;;;;;1.63;87.26;101513.72;1723667;81;25760;-74
2021/11/23 08:16:30;;;;;;;24.77;11.35;;;;;;;1.64;87.27;101503.59;1727199;81;98598;-72
2021/11/23 08:18:56;;;;;;;27.85;11.90;;;;;;;1.67;87.25;101500.09;1729938;80;26103;-71
2021/11/23 08:21:24;;;;;;;20.30;10.72;;;;;;;1.71;87.36;101515.09;1722965;81;27418;-71
2021/11/23 08:23:51;;;;;;;29.95;13.10;;;;;;;1.71;87.31;101510.69;1722358;81;97968;-71
2021/11/23 08:26:17;;;;;;;28.98;12.20;;;;;;;1.74;87.40;101520.39;1727285;81;25782;-71
2021/11/23 08:28:43;;;;;;;33.83;13.45;;;;;;;1.76;87.46;101514.24;1718753;81;98780;-71
2021/11/23 08:31:10;;;;;;;26.23;11.85;;;;;;;1.80;87.73;101523.08;1728272;80;25774;-71
2021/11/23 08:33:36;;;;;;;31.70;13.43;;;;;;;1.81;87.56;101515.59;1725523;81;99128;-71
2021/11/23 08:36:03;;;;;;;29.77;13.08;;;;;;;1.86;87.79;101507.25;1726107;81;25799;-74
2021/11/23 08:38:29;;;;;;;30.68;14.28;;;;;;;1.90;87.64;101503.31;1723278;81;25771;-73
2021/11/23 08:40:55;;;;;;;35.00;15.40;;;;;;;1.97;87.89;101526.70;1722725;81;97958;-75
2021/11/23 08:43:21;;;;;;;30.80;13.72;;;;;;;2.00;87.72;101524.52;1721548;81;25775;-75
2021/11/23 08:45:49;;;;;;;29.37;14.45;;;;;;;2.02;87.75;101534.23;1694094;82;99029;-73
2021/11/23 08:48:15;;;;;;;28.60;14.35;;;;;;;2.03;87.79;101521.89;1698065;82;25989;-72
2021/11/23 08:50:41;;;;;;;31.52;15.20;;;;;;;2.06;87.81;101527.20;1697926;82;25710;-72
2021/11/23 08:53:08;;;;;;;32.73;15.30;;;;;;;2.09;87.80;101522.81;1709896;82;98723;-72
2021/11/23 08:55:37;;;;;;;38.25;14.03;;;;;;;2.13;87.78;101535.17;1705392;82;25767;-72
2021/11/23 08:58:06;;;;;;;31.40;13.68;;;;;;;2.16;87.77;101533.87;1693388;82;99168;-73
2021/11/23 09:00:33;;;;;;;29.87;14.58;;;;;;;2.17;87.82;101527.70;1694115;82;25862;-72
2021/11/23 09:03:00;;;;;;;39.78;15.53;;;;;;;2.17;87.90;101522.41;1696015;82;25871;-71
2021/11/23 09:05:33;;;;;;;36.63;16.67;;;;;;;2.21;87.96;101524.20;1697203;82;98944;-72
2021/11/23 09:08:02;;;;;;;29.30;13.45;;;;;;;2.26;87.96;101512.31;1693712;82;26455;-71
2021/11/23 09:10:34;;;;;;;28.25;15.40;;;;;;;2.31;88.03;101517.63;1701002;82;98802;-75
2021/11/23 09:13:01;;;;;;;30.75;14.53;;;;;;;2.33;88.08;101526.45;1699233;82;25828;-75
2021/11/23 09:15:28;;;;;;;32.65;15.60;;;;;;;2.38;88.15;101543.23;1697526;82;25802;-69
2021/11/23 09:18:00;;;;;;;37.08;15.88;;;;;;;2.41;88.17;101552.50;1697736;82;98825;-73
2021/11/23 09:20:25;;;;;;;;;;;;;;;2.44;88.16;101554.72;1699418;82;26236;-69
2021/11/23 09:22:51;;;;;;;32.63;14.73;;;;;;;2.47;88.11;101547.23;1694739;82;84144;-70
2021/11/23 09:25:18;;;;;;;28.05;13.98;;;;;;;2.48;88.18;101541.06;1698405;82;25863;-72
2021/11/23 09:27:44;;;;;;;29.30;13.75;;;;;;;2.50;88.23;101545.48;1699371;82;99250;-71
2021/11/23 09:30:14;;;;;;;30.00;14.58;;;;;;;2.53;88.20;101539.32;1703815;82;26025;-70
2021/11/23 09:32:40;;;;;;;28.27;13.95;;;;;;;2.56;88.24;101538.02;1704089;82;25818;-72
2021/11/23 09:35:10;;;;;;;29.60;14.98;;;;;;;2.58;88.23;101534.93;1696070;82;99028;-71
2021/11/23 09:37:35;;;;;;;27.85;13.45;;;;;;;2.60;88.24;101533.17;1701778;82;25799;-72
2021/11/23 09:40:01;;;;;;;26.07;14.07;;;;;;;2.64;88.27;101534.03;1693229;82;99324;-74
2021/11/23 09:42:27;;;;;;;26.37;12.75;;;;;;;2.68;88.30;101543.31;1701020;82;26704;-74
2021/11/23 09:44:53;;;;;;;25.05;11.80;;;;;;;2.71;88.32;101534.50;1716165;81;25920;-71
2021/11/23 09:47:22;;;;;;;25.08;13.30;;;;;;;2.75;88.41;101536.27;1721662;80;98000;-71
2021/11/23 09:49:47;;;;;;;28.52;12.35;;;;;;;2.78;88.36;101535.84;1719000;80;25778;-74
2021/11/23 09:52:13;;;;;;;29.90;13.50;;;;;;;2.82;88.48;101532.33;1729307;80;99120;-74
2021/11/23 09:54:40;;;;;;;30.95;13.48;;;;;;;2.82;88.45;101538.94;1721687;80;26013;-73
2021/11/23 09:57:06;;;;;;;22.67;12.10;;;;;;;2.89;88.49;101533.22;1724724;81;25285;-73
2021/11/23 09:59:32;;;;;;;24.80;13.18;;;;;;;2.93;88.48;101545.15;1721718;80;98795;-75
2021/11/23 10:02:00;;;;;;;30.32;12.10;;;;;;;2.98;88.50;101538.53;1724415;79;26541;-73
2021/11/23 10:04:29;;;;;;;22.37;11.83;;;;;;;3.02;88.54;101535.02;1729366;80;98992;-74
2021/11/23 10:07:03;;;;;;;26.05;13.32;;;;;;;3.06;88.65;101531.92;1698806;80;26603;-72
2021/11/23 10:09:37;;;;;;;25.15;12.25;;;;;;;3.10;88.62;101533.70;1723661;80;26091;-69
2021/11/23 10:12:24;;;;;;;27.45;11.93;;;;;;;3.12;88.72;101535.91;1725936;80;98676;-73
2021/11/23 10:15:16;;;;;;;23.22;12.40;;;;;;;3.14;88.65;101521.79;1720903;80;25945;-69
2021/11/23 10:17:45;;;;;;;;;;;;;;;3.19;88.70;101520.47;1713276;80;98866;-74
2021/11/23 10:20:32;;;;;;;25.05;10.90;;;;;;;3.19;88.75;101533.27;1728941;80;26057;-73
2021/11/23 10:23:23;;;;;;;22.95;10.82;;;;;;;3.26;88.74;101537.69;1729428;81;98779;-72
2021/11/23 10:25:54;;;;;;;16.95;9.15;;;;;;;3.32;88.70;101526.66;1725202;80;27322;-69
2021/11/23 10:28:25;;;;;;;18.20;9.50;;;;;;;3.41;88.76;101526.22;1737795;80;99049;-67
2021/11/23 10:30:51;;;;;;;28.60;11.08;;;;;;;3.43;88.66;101543.00;1706201;82;25755;-70
2021/11/23 10:33:19;;;;;;;17.92;10.40;;;;;;;3.44;88.62;101536.81;1726402;81;26034;-70
2021/11/23 10:35:50;;;;;;;22.10;10.70;;;;;;;3.49;88.64;101552.28;1721917;81;98743;-69
2021/11/23 10:38:16;;;;;;;15.93;9.83;;;;;;;3.53;88.61;101541.23;1724157;81;28193;-69
2021/11/23 10:40:46;;;;;;;22.45;9.93;;;;;;;3.55;88.56;101538.14;1694331;80;98571;-71
2021/11/23 10:43:16;;;;;;;20.62;10.32;;;;;;;3.58;88.56;101548.30;1723393;80;25746;-70
2021/11/23 10:45:50;;;;;;;23.92;11.85;;;;;;;3.61;88.54;101538.58;1720300;80;98893;-70
2021/11/23 10:48:22;;;;;;;19.02;10.68;;;;;;;3.61;88.57;101547.86;1723805;80;25694;-70
2021/11/23 10:51:03;;;;;;;17.23;8.65;;;;;;;3.64;88.59;101547.86;1720377;80;28181;-70
2021/11/23 10:53:31;;;;;;;21.93;12.13;;;;;;;3.68;88.61;101552.27;1721045;80;98531;-70
2021/11/23 10:56:04;;;;;;;17.27;9.68;;;;;;;3.69;88.56;101548.73;1721523;80;26505;-69
2021/11/23 10:58:30;;;;;;;22.80;11.35;;;;;;;3.69;88.56;101542.11;1714427;81;99106;-71
2021/11/23 11:00:56;;;;;;;26.07;11.95;;;;;;;3.70;88.51;101551.83;1732574;81;26595;-72
2021/11/23 11:03:25;;;;;;;25.60;12.30;;;;;;;3.71;88.52;101546.97;1734353;81;27914;-71
2021/11/23 11:05:51;;;;;;;18.30;10.63;;;;;;;3.74;88.59;101535.92;1726986;81;98773;-70
2021/11/23 11:08:22;;;;;;;26.50;12.50;;;;;;;3.77;88.56;101537.24;1728612;81;25768;-71
2021/11/23 11:10:48;;;;;;;25.62;11.38;;;;;;;3.79;88.60;101533.27;1723094;80;97871;-69
2021/11/23 11:13:18;;;;;;;25.48;11.50;;;;;;;3.78;88.58;101531.49;1722854;81;25710;-69
2021/11/23 11:15:51;;;;;;;23.22;11.70;;;;;;;3.79;88.58;101531.49;1719710;80;98845;-68
2021/11/23 11:18:19;;;;;;;24.52;12.95;;;;;;;3.85;88.60;101533.25;1720685;80;25811;-68
2021/11/23 11:21:03;;;;;;;23.65;10.98;;;;;;;3.89;88.63;101535.02;1690222;82;25711;-68
2021/11/23 11:23:32;;;;;;;22.80;11.70;;;;;;;3.89;88.52;101538.55;1718573;80;97849;-69